KLM1464 LFML-EHAM
Flight info
| Callsign | KLM1464 |
|---|---|
| Flight time | 1h 29m |
| Altitude | 36000 |
| Route | ETREK DCT MADOT DCT MOPEM DCT CACHI DCT AVLON DCT OKRIX DCT BRY DCT CLM DCT NURMO DCT LUMIL DCT BELOB UY873 DENUT |
| Aircraft | B738/M-SDE2E3FGHIRWXY/LB1 |
Departure
| Time | 2026-04-28 08:50 |
|---|---|
| Airport | Marseille Provence Airport (LFML) |
Arrival
| Time | 2026-04-28 10:20 |
|---|---|
| Airport | Amsterdam Airport Schiphol (EHAM) |
| Time | Latitude | Longitude | Altitude | Speed | Heading |
|---|---|---|---|---|---|
| 2026-04-28 08:25 | 43.44316 | 5.21741 | 18 ft | 0 kts | 268° |
| 2026-04-28 08:46 | 43.44315 | 5.21700 | 18 ft | 11 kts | 261° |
| 2026-04-28 08:47 | 43.44222 | 5.21612 | 18 ft | 18 kts | 202° |
| 2026-04-28 08:47 | 43.44121 | 5.21548 | 18 ft | 14 kts | 221° |
| 2026-04-28 08:47 | 43.44103 | 5.21421 | 18 ft | 19 kts | 294° |
| 2026-04-28 08:47 | 43.44172 | 5.21232 | 18 ft | 23 kts | 297° |
| 2026-04-28 08:48 | 43.44242 | 5.21055 | 18 ft | 18 kts | 298° |
| 2026-04-28 08:48 | 43.44295 | 5.20919 | 18 ft | 16 kts | 298° |
| 2026-04-28 08:48 | 43.44278 | 5.20770 | 18 ft | 19 kts | 227° |
| 2026-04-28 08:48 | 43.44207 | 5.20629 | 18 ft | 16 kts | 240° |
| 2026-04-28 08:49 | 43.44152 | 5.20497 | 18 ft | 19 kts | 240° |
| 2026-04-28 08:49 | 43.44044 | 5.20424 | 18 ft | 16 kts | 140° |
| 2026-04-28 08:49 | 43.44030 | 5.20443 | 18 ft | 4 kts | 134° |
| 2026-04-28 08:49 | 43.43934 | 5.20578 | 18 ft | 51 kts | 134° |
| 2026-04-28 08:50 | 43.43470 | 5.21224 | 18 ft | 135 kts | 135° |
| 2026-04-28 08:50 | 43.42706 | 5.22289 | 425 ft | 170 kts | 134° |
| 2026-04-28 08:50 | 43.41906 | 5.23502 | 1529 ft | 166 kts | 126° |
| 2026-04-28 08:50 | 43.41378 | 5.24969 | 2207 ft | 185 kts | 102° |
| 2026-04-28 08:51 | 43.41547 | 5.26849 | 2558 ft | 214 kts | 66° |
| 2026-04-28 08:51 | 43.42505 | 5.28426 | 3342 ft | 220 kts | 34° |
| 2026-04-28 08:51 | 43.43928 | 5.29114 | 4328 ft | 223 kts | 5° |
| 2026-04-28 08:51 | 43.45465 | 5.28762 | 5161 ft | 233 kts | 336° |
| 2026-04-28 08:52 | 43.46415 | 5.27942 | 5587 ft | 245 kts | 321° |
| 2026-04-28 08:52 | 43.48434 | 5.26330 | 6578 ft | 262 kts | 340° |
| 2026-04-28 08:52 | 43.50204 | 5.25655 | 7522 ft | 267 kts | 346° |
| 2026-04-28 08:52 | 43.51430 | 5.25294 | 8181 ft | 269 kts | 347° |
| 2026-04-28 08:53 | 43.53273 | 5.24765 | 9142 ft | 272 kts | 347° |
| 2026-04-28 08:53 | 43.55134 | 5.24235 | 10050 ft | 276 kts | 347° |
| 2026-04-28 08:53 | 43.57030 | 5.23692 | 10959 ft | 280 kts | 347° |
| 2026-04-28 08:53 | 43.58932 | 5.23161 | 11927 ft | 279 kts | 347° |
| 2026-04-28 08:54 | 43.60798 | 5.22565 | 13070 ft | 270 kts | 342° |
| 2026-04-28 08:54 | 43.62564 | 5.21808 | 14107 ft | 266 kts | 340° |
| 2026-04-28 08:54 | 43.64332 | 5.20972 | 14806 ft | 274 kts | 338° |
| 2026-04-28 08:54 | 43.66185 | 5.20075 | 15259 ft | 292 kts | 339° |
| 2026-04-28 08:55 | 43.68194 | 5.19103 | 15611 ft | 312 kts | 339° |
| 2026-04-28 08:55 | 43.70296 | 5.18083 | 15925 ft | 333 kts | 339° |
| 2026-04-28 08:55 | 43.72559 | 5.17007 | 16202 ft | 353 kts | 339° |
| 2026-04-28 08:55 | 43.74915 | 5.15896 | 16625 ft | 367 kts | 339° |
| 2026-04-28 08:56 | 43.77364 | 5.14738 | 17332 ft | 371 kts | 339° |
| 2026-04-28 08:56 | 43.79821 | 5.13573 | 17936 ft | 379 kts | 339° |
| 2026-04-28 08:56 | 43.82332 | 5.12381 | 18601 ft | 383 kts | 339° |
| 2026-04-28 08:56 | 43.84846 | 5.11187 | 19305 ft | 387 kts | 338° |
| 2026-04-28 08:57 | 43.87422 | 5.09998 | 19896 ft | 393 kts | 341° |
| 2026-04-28 08:57 | 43.90095 | 5.09101 | 20600 ft | 397 kts | 346° |
| 2026-04-28 08:57 | 43.92830 | 5.08426 | 21232 ft | 401 kts | 348° |
| 2026-04-28 08:57 | 43.95604 | 5.07809 | 21781 ft | 407 kts | 348° |
| 2026-04-28 08:58 | 43.98443 | 5.07175 | 22338 ft | 411 kts | 348° |
| 2026-04-28 08:58 | 44.01283 | 5.06535 | 22924 ft | 414 kts | 348° |
| 2026-04-28 08:58 | 44.04137 | 5.05888 | 23476 ft | 418 kts | 348° |
| 2026-04-28 08:58 | 44.07010 | 5.05234 | 24028 ft | 421 kts | 347° |
| 2026-04-28 08:59 | 44.09901 | 5.04574 | 24536 ft | 425 kts | 347° |
| 2026-04-28 08:59 | 44.12826 | 5.03903 | 25049 ft | 428 kts | 347° |
| 2026-04-28 08:59 | 44.15771 | 5.03226 | 25567 ft | 430 kts | 347° |
| 2026-04-28 08:59 | 44.18717 | 5.02548 | 26036 ft | 433 kts | 347° |
| 2026-04-28 09:00 | 44.21708 | 5.01858 | 26494 ft | 436 kts | 347° |
| 2026-04-28 09:00 | 44.24707 | 5.01171 | 26934 ft | 439 kts | 347° |
| 2026-04-28 09:00 | 44.27726 | 5.00477 | 27367 ft | 442 kts | 347° |
| 2026-04-28 09:00 | 44.30773 | 4.99775 | 27811 ft | 444 kts | 347° |
| 2026-04-28 09:01 | 44.33857 | 4.99062 | 28236 ft | 447 kts | 347° |
| 2026-04-28 09:01 | 44.36931 | 4.98351 | 28626 ft | 449 kts | 347° |
| 2026-04-28 09:01 | 44.40008 | 4.97638 | 29015 ft | 452 kts | 347° |
| 2026-04-28 09:01 | 44.43133 | 4.96917 | 29370 ft | 454 kts | 347° |
| 2026-04-28 09:02 | 44.46236 | 4.96198 | 29736 ft | 457 kts | 347° |
| 2026-04-28 09:02 | 44.49373 | 4.95469 | 30142 ft | 457 kts | 347° |
| 2026-04-28 09:02 | 44.52513 | 4.94737 | 30573 ft | 457 kts | 347° |
| 2026-04-28 09:02 | 44.55633 | 4.94008 | 31047 ft | 455 kts | 347° |
| 2026-04-28 09:03 | 44.58751 | 4.93278 | 31446 ft | 456 kts | 347° |
| 2026-04-28 09:03 | 44.61871 | 4.92547 | 31869 ft | 455 kts | 347° |
| 2026-04-28 09:03 | 44.65021 | 4.91808 | 32336 ft | 453 kts | 347° |
| 2026-04-28 09:03 | 44.68081 | 4.91090 | 32802 ft | 451 kts | 346° |
| 2026-04-28 09:04 | 44.71181 | 4.90252 | 33226 ft | 447 kts | 343° |
| 2026-04-28 09:04 | 44.74159 | 4.89038 | 33635 ft | 443 kts | 337° |
| 2026-04-28 09:04 | 44.77003 | 4.87557 | 34017 ft | 441 kts | 335° |
| 2026-04-28 09:04 | 44.79863 | 4.85953 | 34415 ft | 440 kts | 334° |
| 2026-04-28 09:05 | 44.82695 | 4.84354 | 34792 ft | 439 kts | 334° |
| 2026-04-28 09:05 | 44.85553 | 4.82739 | 35161 ft | 438 kts | 334° |
| 2026-04-28 09:05 | 44.88369 | 4.81147 | 35537 ft | 437 kts | 334° |
| 2026-04-28 09:05 | 44.91172 | 4.79580 | 35892 ft | 436 kts | 334° |
| 2026-04-28 09:06 | 44.94032 | 4.77973 | 36037 ft | 440 kts | 334° |
| 2026-04-28 09:06 | 44.99711 | 4.74766 | 36049 ft | 439 kts | 334° |
| 2026-04-28 09:07 | 45.05330 | 4.71576 | 36059 ft | 434 kts | 334° |
| 2026-04-28 09:07 | 45.10922 | 4.68394 | 36062 ft | 435 kts | 333° |
| 2026-04-28 09:08 | 45.16551 | 4.65217 | 36068 ft | 436 kts | 336° |
| 2026-04-28 09:08 | 45.22438 | 4.63064 | 36077 ft | 442 kts | 345° |
| 2026-04-28 09:09 | 45.28515 | 4.61658 | 36077 ft | 443 kts | 346° |
| 2026-04-28 09:09 | 45.34594 | 4.60272 | 36077 ft | 443 kts | 346° |
| 2026-04-28 09:10 | 45.40716 | 4.58866 | 36051 ft | 446 kts | 345° |
| 2026-04-28 09:10 | 45.46842 | 4.57468 | 36033 ft | 447 kts | 345° |
| 2026-04-28 09:11 | 45.52968 | 4.56056 | 36025 ft | 446 kts | 345° |
| 2026-04-28 09:11 | 45.59101 | 4.54635 | 36023 ft | 446 kts | 345° |
| 2026-04-28 09:12 | 45.65230 | 4.53210 | 36023 ft | 446 kts | 345° |
| 2026-04-28 09:12 | 45.71331 | 4.51790 | 36023 ft | 445 kts | 345° |
| 2026-04-28 09:13 | 45.77444 | 4.50368 | 36023 ft | 445 kts | 345° |
| 2026-04-28 09:13 | 45.83549 | 4.48944 | 36023 ft | 444 kts | 345° |
| 2026-04-28 09:14 | 45.89640 | 4.47520 | 36026 ft | 444 kts | 345° |
| 2026-04-28 09:14 | 45.95735 | 4.46091 | 36031 ft | 444 kts | 345° |
| 2026-04-28 09:15 | 46.01869 | 4.44665 | 36035 ft | 444 kts | 345° |
| 2026-04-28 09:15 | 46.07949 | 4.43238 | 36043 ft | 444 kts | 345° |
| 2026-04-28 09:16 | 46.14030 | 4.41804 | 36050 ft | 443 kts | 345° |
| 2026-04-28 09:16 | 46.20107 | 4.40366 | 36050 ft | 443 kts | 345° |
| 2026-04-28 09:17 | 46.26194 | 4.38925 | 36052 ft | 444 kts | 345° |
| 2026-04-28 09:17 | 46.32226 | 4.37234 | 36053 ft | 440 kts | 341° |
| 2026-04-28 09:18 | 46.38187 | 4.35083 | 36053 ft | 440 kts | 340° |
| 2026-04-28 09:18 | 46.44118 | 4.32950 | 36054 ft | 440 kts | 340° |
| 2026-04-28 09:19 | 46.50056 | 4.30835 | 36053 ft | 440 kts | 340° |
| 2026-04-28 09:19 | 46.56001 | 4.28726 | 36053 ft | 440 kts | 340° |
| 2026-04-28 09:20 | 46.61945 | 4.26620 | 36052 ft | 441 kts | 340° |
| 2026-04-28 09:20 | 46.67902 | 4.24524 | 36051 ft | 441 kts | 340° |
| 2026-04-28 09:21 | 46.73855 | 4.22420 | 36050 ft | 440 kts | 340° |
| 2026-04-28 09:21 | 46.79844 | 4.20306 | 36045 ft | 441 kts | 340° |
| 2026-04-28 09:22 | 46.85795 | 4.18192 | 36044 ft | 441 kts | 340° |
| 2026-04-28 09:22 | 46.91743 | 4.16067 | 36043 ft | 441 kts | 340° |
| 2026-04-28 09:23 | 46.97695 | 4.13934 | 36035 ft | 441 kts | 340° |
| 2026-04-28 09:23 | 47.03642 | 4.11801 | 36045 ft | 441 kts | 340° |
| 2026-04-28 09:24 | 47.09430 | 4.09137 | 36052 ft | 434 kts | 333° |
| 2026-04-28 09:24 | 47.15014 | 4.05815 | 36053 ft | 434 kts | 332° |
| 2026-04-28 09:25 | 47.20588 | 4.02485 | 36053 ft | 434 kts | 332° |
| 2026-04-28 09:25 | 47.26230 | 3.99118 | 36052 ft | 434 kts | 332° |
| 2026-04-28 09:26 | 47.31841 | 3.95801 | 36053 ft | 436 kts | 332° |
| 2026-04-28 09:26 | 47.37473 | 3.92441 | 36053 ft | 437 kts | 332° |
| 2026-04-28 09:27 | 47.45903 | 3.87383 | 36053 ft | 437 kts | 332° |
| 2026-04-28 09:27 | 47.51536 | 3.83992 | 36053 ft | 438 kts | 332° |
| 2026-04-28 09:28 | 47.57174 | 3.80599 | 36053 ft | 438 kts | 332° |
| 2026-04-28 09:28 | 47.62847 | 3.77197 | 36053 ft | 438 kts | 332° |
| 2026-04-28 09:29 | 47.68489 | 3.73816 | 36054 ft | 439 kts | 332° |
| 2026-04-28 09:29 | 47.74165 | 3.70414 | 36055 ft | 440 kts | 332° |
| 2026-04-28 09:30 | 47.79824 | 3.66996 | 36055 ft | 440 kts | 332° |
| 2026-04-28 09:30 | 47.85519 | 3.63543 | 36055 ft | 440 kts | 332° |
| 2026-04-28 09:31 | 47.91181 | 3.60101 | 36055 ft | 440 kts | 332° |
| 2026-04-28 09:31 | 47.96833 | 3.56659 | 36055 ft | 440 kts | 332° |
| 2026-04-28 09:32 | 48.02486 | 3.53186 | 36058 ft | 439 kts | 332° |
| 2026-04-28 09:32 | 48.08124 | 3.49710 | 36059 ft | 439 kts | 332° |
| 2026-04-28 09:33 | 48.13804 | 3.46222 | 36061 ft | 439 kts | 332° |
| 2026-04-28 09:33 | 48.19383 | 3.42785 | 36063 ft | 438 kts | 332° |
| 2026-04-28 09:34 | 48.25059 | 3.39263 | 36063 ft | 438 kts | 332° |
| 2026-04-28 09:34 | 48.30680 | 3.35762 | 36065 ft | 438 kts | 332° |
| 2026-04-28 09:35 | 48.36305 | 3.32249 | 36065 ft | 438 kts | 332° |
| 2026-04-28 09:35 | 48.41892 | 3.28745 | 36063 ft | 435 kts | 331° |
| 2026-04-28 09:36 | 48.47442 | 3.25209 | 36061 ft | 432 kts | 331° |
| 2026-04-28 09:36 | 48.52968 | 3.21676 | 36057 ft | 431 kts | 331° |
| 2026-04-28 09:37 | 48.58490 | 3.18167 | 36080 ft | 436 kts | 332° |
| 2026-04-28 09:37 | 48.64177 | 3.14531 | 36102 ft | 445 kts | 332° |
| 2026-04-28 09:38 | 48.69868 | 3.10868 | 36108 ft | 444 kts | 332° |
| 2026-04-28 09:38 | 48.75520 | 3.07217 | 36112 ft | 443 kts | 332° |
| 2026-04-28 09:39 | 48.80962 | 3.03695 | 36112 ft | 443 kts | 332° |
| 2026-04-28 09:39 | 48.86852 | 3.00837 | 36112 ft | 449 kts | 343° |
| 2026-04-28 09:40 | 48.93054 | 2.99140 | 36112 ft | 450 kts | 346° |
| 2026-04-28 09:40 | 48.99211 | 2.97556 | 36112 ft | 450 kts | 346° |
| 2026-04-28 09:41 | 49.05394 | 2.95951 | 36112 ft | 451 kts | 346° |
| 2026-04-28 09:41 | 49.11579 | 2.94336 | 36112 ft | 452 kts | 345° |
| 2026-04-28 09:42 | 49.17763 | 2.92715 | 36112 ft | 451 kts | 345° |
| 2026-04-28 09:42 | 49.23950 | 2.91101 | 36112 ft | 452 kts | 346° |
| 2026-04-28 09:43 | 49.30140 | 2.89478 | 36112 ft | 452 kts | 345° |
| 2026-04-28 09:43 | 49.36342 | 2.87844 | 36112 ft | 452 kts | 345° |
| 2026-04-28 09:44 | 49.41530 | 2.86472 | 36116 ft | 452 kts | 346° |
| 2026-04-28 09:44 | 49.47728 | 2.84829 | 36126 ft | 453 kts | 346° |
| 2026-04-28 09:45 | 49.53844 | 2.83210 | 36130 ft | 452 kts | 346° |
| 2026-04-28 09:45 | 49.60033 | 2.81564 | 36136 ft | 452 kts | 346° |
| 2026-04-28 09:46 | 49.66233 | 2.79905 | 36144 ft | 453 kts | 346° |
| 2026-04-28 09:46 | 49.72476 | 2.78228 | 36148 ft | 452 kts | 346° |
| 2026-04-28 09:47 | 49.78668 | 2.76602 | 36145 ft | 453 kts | 349° |
| 2026-04-28 09:47 | 49.85004 | 2.76583 | 36148 ft | 461 kts | 3° |
| 2026-04-28 09:48 | 49.91326 | 2.78523 | 36148 ft | 464 kts | 10° |
| 2026-04-28 09:48 | 49.97604 | 2.80822 | 36137 ft | 465 kts | 9° |
| 2026-04-28 09:49 | 50.03893 | 2.83104 | 36141 ft | 464 kts | 9° |
| 2026-04-28 09:49 | 50.10169 | 2.85374 | 36142 ft | 464 kts | 9° |
| 2026-04-28 09:50 | 50.16464 | 2.87622 | 36129 ft | 466 kts | 9° |
| 2026-04-28 09:50 | 50.22793 | 2.89906 | 36145 ft | 461 kts | 10° |
| 2026-04-28 09:51 | 50.29021 | 2.92167 | 36178 ft | 461 kts | 10° |
| 2026-04-28 09:51 | 50.35270 | 2.94443 | 36194 ft | 460 kts | 10° |
| 2026-04-28 09:52 | 50.41435 | 2.97048 | 36200 ft | 462 kts | 17° |
| 2026-04-28 09:52 | 50.47328 | 3.01291 | 35929 ft | 463 kts | 26° |
| 2026-04-28 09:53 | 50.50110 | 3.03656 | 35313 ft | 460 kts | 26° |
| 2026-04-28 09:53 | 50.52953 | 3.06082 | 34581 ft | 462 kts | 26° |
| 2026-04-28 09:53 | 50.55782 | 3.08495 | 33848 ft | 463 kts | 26° |
| 2026-04-28 09:53 | 50.58608 | 3.10904 | 33151 ft | 464 kts | 25° |
| 2026-04-28 09:54 | 50.61430 | 3.13312 | 32596 ft | 462 kts | 25° |
| 2026-04-28 09:54 | 50.64247 | 3.15716 | 32048 ft | 459 kts | 26° |
| 2026-04-28 09:54 | 50.67049 | 3.18108 | 31508 ft | 456 kts | 26° |
| 2026-04-28 09:54 | 50.69823 | 3.20476 | 30977 ft | 453 kts | 26° |
| 2026-04-28 09:55 | 50.72580 | 3.22810 | 30450 ft | 450 kts | 25° |
| 2026-04-28 09:55 | 50.75333 | 3.25101 | 29931 ft | 447 kts | 26° |
| 2026-04-28 09:55 | 50.78077 | 3.27390 | 29417 ft | 445 kts | 26° |
| 2026-04-28 09:55 | 50.80807 | 3.29673 | 28906 ft | 443 kts | 25° |
| 2026-04-28 09:56 | 50.83537 | 3.31960 | 28395 ft | 440 kts | 26° |
| 2026-04-28 09:56 | 50.86231 | 3.34220 | 27890 ft | 437 kts | 26° |
| 2026-04-28 09:56 | 50.88910 | 3.36472 | 27386 ft | 434 kts | 26° |
| 2026-04-28 09:56 | 50.91557 | 3.38699 | 26888 ft | 431 kts | 26° |
| 2026-04-28 09:57 | 50.94204 | 3.40929 | 26387 ft | 428 kts | 26° |
| 2026-04-28 09:57 | 50.96827 | 3.43114 | 25892 ft | 425 kts | 26° |
| 2026-04-28 09:57 | 50.99430 | 3.45281 | 25401 ft | 422 kts | 26° |
| 2026-04-28 09:57 | 51.02010 | 3.47444 | 24912 ft | 419 kts | 26° |
| 2026-04-28 09:58 | 51.04578 | 3.49609 | 24420 ft | 416 kts | 26° |
| 2026-04-28 09:58 | 51.07127 | 3.51765 | 23930 ft | 414 kts | 27° |
| 2026-04-28 09:58 | 51.09646 | 3.53903 | 23442 ft | 411 kts | 26° |
| 2026-04-28 09:58 | 51.12195 | 3.56069 | 22947 ft | 408 kts | 26° |
| 2026-04-28 09:59 | 51.14689 | 3.58194 | 22461 ft | 406 kts | 27° |
| 2026-04-28 09:59 | 51.17164 | 3.60304 | 21983 ft | 403 kts | 27° |
| 2026-04-28 09:59 | 51.19628 | 3.62406 | 21509 ft | 400 kts | 28° |
| 2026-04-28 09:59 | 51.22141 | 3.64233 | 21038 ft | 397 kts | 19° |
| 2026-04-28 10:00 | 51.24810 | 3.65312 | 20552 ft | 394 kts | 8° |
| 2026-04-28 10:00 | 51.27520 | 3.65700 | 20081 ft | 391 kts | 1° |
| 2026-04-28 10:00 | 51.30218 | 3.65723 | 19618 ft | 388 kts | 358° |
| 2026-04-28 10:00 | 51.32896 | 3.65614 | 19159 ft | 385 kts | 358° |
| 2026-04-28 10:01 | 51.35565 | 3.65498 | 18711 ft | 381 kts | 359° |
| 2026-04-28 10:01 | 51.38185 | 3.65393 | 18270 ft | 377 kts | 359° |
| 2026-04-28 10:01 | 51.40806 | 3.65296 | 17828 ft | 373 kts | 359° |
| 2026-04-28 10:01 | 51.43416 | 3.65204 | 17381 ft | 370 kts | 359° |
| 2026-04-28 10:02 | 51.45939 | 3.65117 | 16948 ft | 367 kts | 359° |
| 2026-04-28 10:02 | 51.48516 | 3.65032 | 16506 ft | 364 kts | 359° |
| 2026-04-28 10:02 | 51.51008 | 3.64950 | 16080 ft | 361 kts | 359° |
| 2026-04-28 10:02 | 51.53535 | 3.64868 | 15646 ft | 358 kts | 359° |
| 2026-04-28 10:03 | 51.56013 | 3.64789 | 15223 ft | 356 kts | 359° |
| 2026-04-28 10:03 | 51.58469 | 3.64710 | 14803 ft | 353 kts | 359° |
| 2026-04-28 10:03 | 51.60914 | 3.64632 | 14384 ft | 351 kts | 359° |
| 2026-04-28 10:03 | 51.63352 | 3.64555 | 13961 ft | 349 kts | 359° |
| 2026-04-28 10:04 | 51.65755 | 3.64478 | 13541 ft | 347 kts | 360° |
| 2026-04-28 10:04 | 51.68164 | 3.64418 | 13114 ft | 345 kts | 2° |
| 2026-04-28 10:04 | 51.70498 | 3.65112 | 12687 ft | 340 kts | 21° |
| 2026-04-28 10:04 | 51.72531 | 3.67040 | 12243 ft | 335 kts | 41° |
| 2026-04-28 10:05 | 51.74124 | 3.69784 | 11729 ft | 335 kts | 53° |
| 2026-04-28 10:05 | 51.75491 | 3.72786 | 11311 ft | 331 kts | 57° |
| 2026-04-28 10:05 | 51.76749 | 3.75868 | 11017 ft | 325 kts | 59° |
| 2026-04-28 10:05 | 51.77923 | 3.78882 | 10790 ft | 317 kts | 60° |
| 2026-04-28 10:06 | 51.79081 | 3.81863 | 10603 ft | 307 kts | 60° |
| 2026-04-28 10:06 | 51.80192 | 3.84720 | 10427 ft | 292 kts | 60° |
| 2026-04-28 10:06 | 51.81240 | 3.87418 | 10268 ft | 278 kts | 60° |
| 2026-04-28 10:06 | 51.82256 | 3.90031 | 10071 ft | 273 kts | 60° |
| 2026-04-28 10:07 | 51.83261 | 3.92615 | 9780 ft | 271 kts | 60° |
| 2026-04-28 10:07 | 51.84274 | 3.95220 | 9478 ft | 270 kts | 60° |
| 2026-04-28 10:07 | 51.85267 | 3.97777 | 9175 ft | 268 kts | 60° |
| 2026-04-28 10:07 | 51.86252 | 4.00314 | 8867 ft | 267 kts | 60° |
| 2026-04-28 10:08 | 51.87237 | 4.02851 | 8553 ft | 266 kts | 60° |
| 2026-04-28 10:08 | 51.88219 | 4.05379 | 8243 ft | 265 kts | 60° |
| 2026-04-28 10:08 | 51.89193 | 4.07884 | 7938 ft | 263 kts | 60° |
| 2026-04-28 10:08 | 51.90163 | 4.10382 | 7633 ft | 262 kts | 59° |
| 2026-04-28 10:09 | 51.91225 | 4.12777 | 7324 ft | 262 kts | 51° |
| 2026-04-28 10:09 | 51.92509 | 4.14839 | 7022 ft | 261 kts | 45° |
| 2026-04-28 10:09 | 51.93862 | 4.16782 | 6719 ft | 260 kts | 44° |
| 2026-04-28 10:09 | 51.95231 | 4.18683 | 6414 ft | 258 kts | 43° |
| 2026-04-28 10:10 | 51.96583 | 4.20560 | 6120 ft | 256 kts | 43° |
| 2026-04-28 10:10 | 51.97912 | 4.22389 | 5976 ft | 243 kts | 43° |
| 2026-04-28 10:10 | 51.99170 | 4.24110 | 5801 ft | 231 kts | 43° |
| 2026-04-28 10:10 | 52.00387 | 4.25780 | 5535 ft | 224 kts | 44° |
| 2026-04-28 10:11 | 52.01564 | 4.27402 | 5173 ft | 222 kts | 44° |
| 2026-04-28 10:11 | 52.02735 | 4.29020 | 4799 ft | 220 kts | 44° |
| 2026-04-28 10:11 | 52.03890 | 4.30619 | 4443 ft | 218 kts | 44° |
| 2026-04-28 10:11 | 52.05035 | 4.32208 | 4082 ft | 215 kts | 44° |
| 2026-04-28 10:12 | 52.06165 | 4.33779 | 3700 ft | 214 kts | 44° |
| 2026-04-28 10:12 | 52.07287 | 4.35342 | 3341 ft | 212 kts | 44° |
| 2026-04-28 10:12 | 52.08402 | 4.36897 | 2957 ft | 210 kts | 44° |
| 2026-04-28 10:12 | 52.09509 | 4.38442 | 2665 ft | 209 kts | 44° |
| 2026-04-28 10:13 | 52.10595 | 4.39960 | 2520 ft | 202 kts | 44° |
| 2026-04-28 10:13 | 52.11629 | 4.41405 | 2438 ft | 191 kts | 44° |
| 2026-04-28 10:13 | 52.12507 | 4.42635 | 2300 ft | 185 kts | 45° |
| 2026-04-28 10:13 | 52.13506 | 4.44033 | 2044 ft | 182 kts | 45° |
| 2026-04-28 10:14 | 52.14460 | 4.45370 | 1784 ft | 180 kts | 44° |
| 2026-04-28 10:14 | 52.15407 | 4.46698 | 1707 ft | 182 kts | 44° |
| 2026-04-28 10:14 | 52.16357 | 4.48030 | 1702 ft | 175 kts | 44° |
| 2026-04-28 10:14 | 52.17268 | 4.49307 | 1688 ft | 167 kts | 44° |
| 2026-04-28 10:15 | 52.18130 | 4.50516 | 1705 ft | 161 kts | 44° |
| 2026-04-28 10:15 | 52.18966 | 4.51690 | 1733 ft | 156 kts | 44° |
| 2026-04-28 10:15 | 52.19780 | 4.52831 | 1718 ft | 153 kts | 44° |
| 2026-04-28 10:15 | 52.20570 | 4.53940 | 1755 ft | 148 kts | 44° |
| 2026-04-28 10:16 | 52.21340 | 4.55023 | 1752 ft | 145 kts | 44° |
| 2026-04-28 10:16 | 52.22055 | 4.56137 | 1749 ft | 141 kts | 52° |
| 2026-04-28 10:16 | 52.22627 | 4.57422 | 1765 ft | 139 kts | 58° |
| 2026-04-28 10:16 | 52.23145 | 4.58748 | 1796 ft | 139 kts | 59° |
| 2026-04-28 10:17 | 52.23662 | 4.60089 | 1821 ft | 141 kts | 59° |
| 2026-04-28 10:17 | 52.24176 | 4.61423 | 1765 ft | 144 kts | 59° |
| 2026-04-28 10:17 | 52.24709 | 4.62806 | 1570 ft | 139 kts | 59° |
| 2026-04-28 10:17 | 52.25209 | 4.64103 | 1394 ft | 132 kts | 58° |
| 2026-04-28 10:18 | 52.25695 | 4.65366 | 1234 ft | 128 kts | 58° |
| 2026-04-28 10:18 | 52.26168 | 4.66595 | 1054 ft | 128 kts | 58° |
| 2026-04-28 10:18 | 52.26640 | 4.67820 | 883 ft | 128 kts | 57° |
| 2026-04-28 10:18 | 52.27116 | 4.69058 | 713 ft | 129 kts | 57° |
| 2026-04-28 10:19 | 52.27592 | 4.70295 | 541 ft | 130 kts | 57° |
| 2026-04-28 10:19 | 52.28072 | 4.71543 | 368 ft | 129 kts | 57° |
| 2026-04-28 10:19 | 52.28549 | 4.72778 | 193 ft | 129 kts | 57° |
| 2026-04-28 10:19 | 52.29030 | 4.74008 | 27 ft | 127 kts | 57° |
| 2026-04-28 10:20 | 52.29441 | 4.75084 | 13 ft | 82 kts | 56° |
| 2026-04-28 10:20 | 52.29635 | 4.75584 | 13 ft | 30 kts | 57° |
| 2026-04-28 10:20 | 52.29764 | 4.75783 | 13 ft | 23 kts | 27° |
| 2026-04-28 10:20 | 52.29890 | 4.75897 | 13 ft | 20 kts | 29° |
| 2026-04-28 10:21 | 52.30001 | 4.76023 | 13 ft | 18 kts | 52° |
| 2026-04-28 10:21 | 52.30061 | 4.76172 | 13 ft | 14 kts | 58° |
| 2026-04-28 10:21 | 52.30112 | 4.76304 | 13 ft | 15 kts | 57° |
| 2026-04-28 10:21 | 52.30177 | 4.76471 | 13 ft | 20 kts | 57° |
| 2026-04-28 10:22 | 52.30245 | 4.76640 | 13 ft | 16 kts | 56° |
| 2026-04-28 10:22 | 52.30313 | 4.76725 | 13 ft | 9 kts | 341° |
| 2026-04-28 10:22 | 52.30347 | 4.76643 | 13 ft | 10 kts | 289° |
| 2026-04-28 10:22 | 52.30390 | 4.76558 | 13 ft | 8 kts | 342° |
| 2026-04-28 10:23 | 52.30423 | 4.76579 | 13 ft | 4 kts | 46° |
| 2026-04-28 10:23 | 52.30429 | 4.76595 | 13 ft | 0 kts | 58° |